createdAt,value
2018-05-31T00:00:45.772Z,18.40
2018-05-31T00:03:13.121Z,18.40
2018-05-31T00:05:39.413Z,18.20
2018-05-31T00:08:05.732Z,18.10
2018-05-31T00:10:32.016Z,18.20
2018-05-31T00:12:58.317Z,18.00
2018-05-31T00:15:24.616Z,18.10
2018-05-31T00:17:50.909Z,18.20
2018-05-31T00:20:17.209Z,18.20
2018-05-31T00:22:44.253Z,18.20
2018-05-31T00:25:10.558Z,18.20
2018-05-31T00:27:36.868Z,18.20
2018-05-31T00:30:03.165Z,18.30
2018-05-31T00:32:29.453Z,18.20
2018-05-31T00:34:56.786Z,17.90
2018-05-31T00:37:23.061Z,17.80
2018-05-31T00:39:49.374Z,17.80
2018-05-31T00:42:15.673Z,17.70
2018-05-31T00:44:42.005Z,17.80
2018-05-31T00:47:09.094Z,17.70
2018-05-31T00:49:35.438Z,17.70
2018-05-31T00:52:02.513Z,17.80
2018-05-31T00:54:28.816Z,17.80
2018-05-31T00:56:55.896Z,17.70
2018-05-31T00:59:22.940Z,17.60
2018-05-31T01:01:49.267Z,17.60
2018-05-31T01:04:15.565Z,17.60
2018-05-31T01:06:41.900Z,17.60
2018-05-31T01:09:08.196Z,17.40
2018-05-31T01:11:34.507Z,17.30
2018-05-31T01:14:00.825Z,17.00
2018-05-31T01:16:27.116Z,17.10
2018-05-31T01:18:53.422Z,17.20
2018-05-31T01:21:19.712Z,17.10
2018-05-31T01:23:46.027Z,17.10
2018-05-31T01:26:13.103Z,17.10
2018-05-31T01:28:40.105Z,17.20
2018-05-31T01:31:06.415Z,17.10
2018-05-31T01:33:32.732Z,17.30
2018-05-31T01:35:59.054Z,17.30
2018-05-31T01:38:31.141Z,17.30
2018-05-31T01:40:57.492Z,17.20
2018-05-31T01:43:24.552Z,17.30
2018-05-31T01:45:51.669Z,17.30
2018-05-31T01:48:17.969Z,17.30
2018-05-31T01:50:44.296Z,17.40
2018-05-31T01:53:10.613Z,17.40
2018-05-31T01:55:36.952Z,17.20
2018-05-31T01:58:03.285Z,17.20
2018-05-31T02:00:29.873Z,17.30
2018-05-31T02:02:56.201Z,17.30
2018-05-31T02:05:22.516Z,17.30
2018-05-31T02:07:48.792Z,17.30
2018-05-31T02:10:15.830Z,17.20
2018-05-31T02:12:43.927Z,17.10
2018-05-31T02:15:10.235Z,17.00
2018-05-31T02:17:37.305Z,16.80
2018-05-31T02:20:03.629Z,16.80
2018-05-31T02:22:29.916Z,16.70
2018-05-31T02:24:56.237Z,16.60
2018-05-31T02:27:22.529Z,16.60
2018-05-31T02:29:48.837Z,16.60
2018-05-31T02:32:15.934Z,16.50
2018-05-31T02:34:42.217Z,16.50
2018-05-31T02:37:09.276Z,16.60
2018-05-31T02:39:35.585Z,16.60
2018-05-31T02:42:02.661Z,16.70
2018-05-31T02:44:28.975Z,16.70
2018-05-31T02:46:55.316Z,16.80
2018-05-31T02:49:21.622Z,16.80
2018-05-31T02:51:48.681Z,16.80
2018-05-31T02:54:15.728Z,16.80
2018-05-31T02:56:42.788Z,16.90
2018-05-31T02:59:09.085Z,16.80
2018-05-31T03:01:35.424Z,16.80
2018-05-31T03:04:02.527Z,16.90
2018-05-31T03:06:28.869Z,16.80
2018-05-31T03:08:55.213Z,16.90
2018-05-31T03:11:21.513Z,16.90
2018-05-31T03:13:47.816Z,16.90
2018-05-31T03:16:14.853Z,16.80
2018-05-31T03:18:41.915Z,16.70
2018-05-31T03:21:09.261Z,16.70
2018-05-31T03:23:35.585Z,16.80
2018-05-31T03:26:02.625Z,16.70
2018-05-31T03:28:29.701Z,16.80
2018-05-31T03:30:56.047Z,16.70
2018-05-31T03:33:22.381Z,16.80
2018-05-31T03:35:48.697Z,16.80
2018-05-31T03:38:15.048Z,16.80
2018-05-31T03:40:41.643Z,16.80
2018-05-31T03:43:07.993Z,16.80
2018-05-31T03:45:34.297Z,16.80
2018-05-31T03:48:00.577Z,16.70
2018-05-31T03:50:26.909Z,16.70
2018-05-31T03:52:53.256Z,16.70
2018-05-31T03:55:19.561Z,16.60
2018-05-31T03:57:45.856Z,16.70
2018-05-31T04:00:12.947Z,16.70
2018-05-31T04:02:39.254Z,16.70
2018-05-31T04:05:05.585Z,16.70
2018-05-31T04:07:31.860Z,16.80
2018-05-31T04:09:58.181Z,16.80
2018-05-31T04:12:24.477Z,16.80
2018-05-31T04:14:52.678Z,16.90
2018-05-31T04:17:18.972Z,16.80
2018-05-31T04:19:45.261Z,16.80
2018-05-31T04:22:11.606Z,16.90
2018-05-31T04:24:37.898Z,17.00
2018-05-31T04:27:04.209Z,17.10
2018-05-31T04:29:30.537Z,17.00
2018-05-31T04:31:56.813Z,16.90
2018-05-31T04:34:23.109Z,16.90
2018-05-31T04:36:49.433Z,17.00
2018-05-31T04:39:15.728Z,17.00
2018-05-31T04:41:42.781Z,17.30
2018-05-31T04:44:09.129Z,17.30
2018-05-31T04:46:35.405Z,17.50
2018-05-31T04:49:01.709Z,17.40
2018-05-31T04:51:28.047Z,17.50
2018-05-31T04:53:54.348Z,17.70
2018-05-31T04:56:20.652Z,17.80
2018-05-31T04:58:47.001Z,18.00
2018-05-31T05:01:14.036Z,18.10
2018-05-31T05:03:41.073Z,18.10
2018-05-31T05:06:09.138Z,18.30
2018-05-31T05:08:35.456Z,18.20
2018-05-31T05:11:01.816Z,18.30
2018-05-31T05:13:28.855Z,18.50
2018-05-31T05:15:55.893Z,18.60
2018-05-31T05:18:23.205Z,18.60
2018-05-31T05:20:49.521Z,18.80
2018-05-31T05:23:15.841Z,19.00
2018-05-31T05:25:42.900Z,19.30
2018-05-31T05:28:09.229Z,19.30
2018-05-31T05:30:35.529Z,19.40
2018-05-31T05:33:03.581Z,19.70
2018-05-31T05:35:29.881Z,19.60
2018-05-31T05:37:56.184Z,19.90
2018-05-31T05:40:22.491Z,20.10
2018-05-31T05:42:49.553Z,20.50
2018-05-31T05:45:16.596Z,20.80
2018-05-31T05:47:43.668Z,21.20
2018-05-31T05:50:10.021Z,21.30
2018-05-31T05:52:36.319Z,21.30
2018-05-31T05:55:02.640Z,21.70
2018-05-31T05:57:29.688Z,22.40
2018-05-31T05:59:56.002Z,22.40
2018-05-31T06:02:23.081Z,23.00
2018-05-31T06:04:50.106Z,23.30
2018-05-31T06:07:17.138Z,23.60
2018-05-31T06:09:43.468Z,23.50
2018-05-31T06:12:10.516Z,24.30
2018-05-31T06:14:36.789Z,24.20
2018-05-31T06:17:04.126Z,24.30
2018-05-31T06:19:31.173Z,24.70
2018-05-31T06:21:58.974Z,24.90
2018-05-31T06:24:25.988Z,24.60
2018-05-31T06:26:53.036Z,24.20
2018-05-31T06:29:20.067Z,24.10
2018-05-31T06:31:47.145Z,23.70
2018-05-31T06:34:14.165Z,23.40
2018-05-31T06:36:40.459Z,23.30
2018-05-31T06:39:06.761Z,23.20
2018-05-31T06:41:33.813Z,23.40
2018-05-31T06:44:00.880Z,23.70
2018-05-31T06:46:27.160Z,23.70
2018-05-31T06:48:55.199Z,24.10
2018-05-31T06:51:21.505Z,24.00
2018-05-31T06:53:47.809Z,24.30
2018-05-31T06:56:14.079Z,24.50
2018-05-31T06:58:40.411Z,24.60
2018-05-31T07:01:06.690Z,24.70
2018-05-31T07:03:32.964Z,24.80
2018-05-31T07:05:59.248Z,24.80
2018-05-31T07:08:25.528Z,24.60
2018-05-31T07:10:51.828Z,24.30
2018-05-31T07:13:18.856Z,24.20
2018-05-31T07:15:45.157Z,24.20
2018-05-31T07:18:11.425Z,24.10
2018-05-31T07:20:37.712Z,24.30
2018-05-31T07:23:04.021Z,24.40
2018-05-31T07:25:31.032Z,24.90
2018-05-31T07:27:58.076Z,25.00
2018-05-31T07:30:25.356Z,25.00
2018-05-31T07:32:52.396Z,25.20
2018-05-31T07:35:19.425Z,25.20
2018-05-31T07:37:46.485Z,25.40
2018-05-31T07:40:13.500Z,25.20
2018-05-31T07:42:39.795Z,25.20
2018-05-31T07:45:06.727Z,25.20
2018-05-31T07:47:33.021Z,25.20
2018-05-31T07:49:59.312Z,25.20
2018-05-31T07:52:25.613Z,25.00
2018-05-31T07:54:51.895Z,24.90
2018-05-31T07:57:18.200Z,25.00
2018-05-31T07:59:44.577Z,25.20
2018-05-31T08:02:11.634Z,25.60
2018-05-31T08:04:38.659Z,25.60
2018-05-31T08:07:04.989Z,25.50
2018-05-31T08:09:31.253Z,25.60
2018-05-31T08:11:58.268Z,25.60
2018-05-31T08:14:24.564Z,25.50
2018-05-31T08:16:50.887Z,25.80
2018-05-31T08:19:17.193Z,25.80
2018-05-31T08:21:44.208Z,26.10
2018-05-31T08:24:10.504Z,26.10
2018-05-31T08:26:36.829Z,26.10
2018-05-31T08:29:03.161Z,26.10
2018-05-31T08:31:29.455Z,26.20
2018-05-31T08:33:56.514Z,26.50
2018-05-31T08:36:22.789Z,26.40
2018-05-31T08:38:49.096Z,26.60
2018-05-31T08:41:15.389Z,26.70
2018-05-31T08:43:42.427Z,26.90
2018-05-31T08:46:10.100Z,26.80
2018-05-31T08:48:38.153Z,26.80
2018-05-31T08:51:04.490Z,26.70
2018-05-31T08:53:30.792Z,27.00
2018-05-31T08:55:57.068Z,27.00
2018-05-31T08:58:24.109Z,27.30
2018-05-31T09:00:51.141Z,27.40
2018-05-31T09:03:17.437Z,27.30
2018-05-31T09:05:44.736Z,27.20
2018-05-31T09:08:11.785Z,27.30
2018-05-31T09:10:38.837Z,27.60
2018-05-31T09:13:05.904Z,27.80
2018-05-31T09:15:32.228Z,27.80
2018-05-31T09:17:58.521Z,27.80
2018-05-31T09:20:24.798Z,28.00
2018-05-31T09:22:51.129Z,27.90
2018-05-31T09:25:17.402Z,28.00
2018-05-31T09:27:43.705Z,28.00
2018-05-31T09:30:09.968Z,27.80
2018-05-31T09:32:36.272Z,27.80
2018-05-31T09:35:02.643Z,28.00
2018-05-31T09:37:28.907Z,28.20
2018-05-31T09:39:55.273Z,28.30
2018-05-31T09:42:21.569Z,28.30
2018-05-31T09:44:47.846Z,28.00
2018-05-31T09:47:14.141Z,27.90
2018-05-31T09:49:40.417Z,28.10
2018-05-31T09:52:06.725Z,28.10
2018-05-31T09:54:33.021Z,28.50
2018-05-31T09:56:59.950Z,28.70
2018-05-31T09:59:26.960Z,29.10
2018-05-31T10:01:53.261Z,29.00
2018-05-31T10:04:19.574Z,29.10
2018-05-31T10:06:45.945Z,29.20
2018-05-31T10:09:12.242Z,29.10
2018-05-31T10:11:39.581Z,29.00
2018-05-31T10:14:05.898Z,29.00
2018-05-31T10:16:32.201Z,29.00
2018-05-31T10:18:58.473Z,29.00
2018-05-31T10:21:24.781Z,29.00
2018-05-31T10:23:51.094Z,28.90
2018-05-31T10:26:17.392Z,28.70
2018-05-31T10:28:44.426Z,28.90
2018-05-31T10:31:12.516Z,28.90
2018-05-31T10:33:39.545Z,29.00
2018-05-31T10:36:05.861Z,28.90
2018-05-31T10:38:32.137Z,29.10
2018-05-31T10:40:58.463Z,28.90
2018-05-31T10:43:25.514Z,29.00
2018-05-31T10:45:52.548Z,28.80
2018-05-31T10:48:19.576Z,28.80
2018-05-31T10:50:45.878Z,28.80
2018-05-31T10:53:12.171Z,29.20
2018-05-31T10:55:39.202Z,29.30
2018-05-31T10:58:05.933Z,29.30
2018-05-31T11:00:32.597Z,29.50
2018-05-31T11:02:59.601Z,29.90
2018-05-31T11:05:26.315Z,29.90
2018-05-31T11:07:52.641Z,30.20
2018-05-31T11:10:18.950Z,30.30
2018-05-31T11:12:45.984Z,30.60
2018-05-31T11:15:13.044Z,30.80
2018-05-31T11:17:40.061Z,31.10
2018-05-31T11:20:06.381Z,31.00
2018-05-31T11:22:32.671Z,31.10
2018-05-31T11:24:58.989Z,31.20
2018-05-31T11:27:25.999Z,31.00
2018-05-31T11:29:52.289Z,30.90
2018-05-31T11:32:18.561Z,30.80
2018-05-31T11:34:44.878Z,30.80
2018-05-31T11:37:11.187Z,30.70
2018-05-31T11:39:37.523Z,30.70
2018-05-31T11:42:03.798Z,30.80
2018-05-31T11:44:30.846Z,31.10
2018-05-31T11:46:57.120Z,31.10
2018-05-31T11:49:23.451Z,31.20
2018-05-31T11:51:49.726Z,31.40
2018-05-31T11:54:16.020Z,31.60
2018-05-31T11:56:42.289Z,31.30
2018-05-31T11:59:08.586Z,31.30
2018-05-31T12:01:34.886Z,31.10
2018-05-31T12:04:01.201Z,30.90
2018-05-31T12:06:28.226Z,31.20
2018-05-31T12:08:55.281Z,31.40
2018-05-31T12:11:23.057Z,31.20
2018-05-31T12:13:50.077Z,31.20
2018-05-31T12:16:16.396Z,31.20
2018-05-31T12:18:42.710Z,31.40
2018-05-31T12:21:10.042Z,31.40
2018-05-31T12:23:36.342Z,31.10
2018-05-31T12:26:04.105Z,31.40
2018-05-31T12:28:31.169Z,31.70
2018-05-31T12:30:57.444Z,31.70
2018-05-31T12:33:23.737Z,32.30
2018-05-31T12:35:50.017Z,33.00
2018-05-31T12:38:17.360Z,33.70
2018-05-31T12:40:43.653Z,34.30
2018-05-31T12:43:09.937Z,34.70
2018-05-31T12:45:36.213Z,35.30
2018-05-31T12:48:02.522Z,35.80
2018-05-31T12:50:29.537Z,36.80
2018-05-31T12:52:55.822Z,36.70
2018-05-31T12:55:22.850Z,37.80
2018-05-31T12:57:49.896Z,38.40
2018-05-31T13:00:16.910Z,38.40
2018-05-31T13:02:43.200Z,38.40
2018-05-31T13:05:09.480Z,38.50
2018-05-31T13:07:35.773Z,39.00
2018-05-31T13:10:02.040Z,39.20
2018-05-31T13:12:28.338Z,39.60
2018-05-31T13:14:54.605Z,39.80
2018-05-31T13:17:20.929Z,39.10
2018-05-31T13:19:47.213Z,39.30
2018-05-31T13:22:13.516Z,39.80
2018-05-31T13:24:40.542Z,38.60
2018-05-31T13:27:06.839Z,38.60
2018-05-31T13:29:33.175Z,38.40
2018-05-31T13:31:59.463Z,38.00
2018-05-31T13:34:25.757Z,37.60
2018-05-31T13:36:53.528Z,37.80
2018-05-31T13:39:19.801Z,37.80
2018-05-31T13:41:46.105Z,38.00
2018-05-31T13:44:12.401Z,38.10
2018-05-31T13:46:38.677Z,38.70
2018-05-31T13:49:04.981Z,39.60
2018-05-31T13:51:32.001Z,41.00
2018-05-31T13:53:58.309Z,40.90
2018-05-31T13:56:24.601Z,41.80
2018-05-31T13:58:51.645Z,39.80
2018-05-31T14:01:18.667Z,38.10
2018-05-31T14:03:46.440Z,36.50
2018-05-31T14:06:14.200Z,35.40
2018-05-31T14:08:40.523Z,35.30
2018-05-31T14:11:06.833Z,34.60
2018-05-31T14:13:33.125Z,34.20
2018-05-31T14:15:59.441Z,33.20
2018-05-31T14:18:26.480Z,32.50
2018-05-31T14:20:53.522Z,32.10
2018-05-31T14:23:20.561Z,31.60
2018-05-31T14:25:46.853Z,31.60
2018-05-31T14:28:13.178Z,31.40
2018-05-31T14:30:39.461Z,31.00
2018-05-31T14:33:05.753Z,30.80
2018-05-31T14:35:32.017Z,30.40
2018-05-31T14:37:58.325Z,30.40
2018-05-31T14:40:24.627Z,30.10
2018-05-31T14:42:50.929Z,29.80
2018-05-31T14:45:17.952Z,29.40
2018-05-31T14:47:44.275Z,29.40
2018-05-31T14:50:10.573Z,29.10
2018-05-31T14:52:36.881Z,29.00
2018-05-31T14:55:03.189Z,28.90
2018-05-31T14:57:30.225Z,29.10
2018-05-31T14:59:56.513Z,29.10
2018-05-31T15:02:22.801Z,29.20
2018-05-31T15:04:49.832Z,29.50
2018-05-31T15:07:16.897Z,29.50
2018-05-31T15:09:44.933Z,29.40
2018-05-31T15:12:11.233Z,29.40
2018-05-31T15:14:37.516Z,29.10
2018-05-31T15:17:04.549Z,28.60
2018-05-31T15:19:30.822Z,28.60
2018-05-31T15:21:57.150Z,28.40
2018-05-31T15:24:23.430Z,28.30
2018-05-31T15:26:49.725Z,28.30
2018-05-31T15:29:16.025Z,28.10
2018-05-31T15:31:43.057Z,28.00
2018-05-31T15:34:10.097Z,27.90
2018-05-31T15:36:36.461Z,27.90
2018-05-31T15:39:02.785Z,27.80
2018-05-31T15:41:29.834Z,27.90
2018-05-31T15:43:56.845Z,27.70
2018-05-31T15:46:23.145Z,27.60
2018-05-31T15:48:49.444Z,27.20
2018-05-31T15:51:16.484Z,26.20
2018-05-31T15:53:43.498Z,26.00
2018-05-31T15:56:09.785Z,25.90
2018-05-31T15:58:36.073Z,25.90
2018-05-31T16:01:03.122Z,26.00
2018-05-31T16:03:30.145Z,26.00
2018-05-31T16:05:56.438Z,26.00
2018-05-31T16:08:22.712Z,26.00
2018-05-31T16:10:49.010Z,25.80
2018-05-31T16:13:15.284Z,25.70
2018-05-31T16:15:41.580Z,25.90
2018-05-31T16:18:07.854Z,26.00
2018-05-31T16:20:34.889Z,26.40
2018-05-31T16:23:01.197Z,26.30
2018-05-31T16:25:27.496Z,26.40
2018-05-31T16:27:53.789Z,26.10
2018-05-31T16:30:20.081Z,26.00
2018-05-31T16:32:46.372Z,25.80
2018-05-31T16:35:13.430Z,25.50
2018-05-31T16:37:39.704Z,25.50
2018-05-31T16:40:06.013Z,25.30
2018-05-31T16:42:32.293Z,24.90
2018-05-31T16:45:00.345Z,24.80
2018-05-31T16:47:26.616Z,24.80
2018-05-31T16:49:52.919Z,24.90
2018-05-31T16:52:19.929Z,24.90
2018-05-31T16:54:46.230Z,24.90
2018-05-31T16:57:12.529Z,24.90
2018-05-31T16:59:39.568Z,24.80
2018-05-31T17:02:05.853Z,24.80
2018-05-31T17:04:32.145Z,24.80
2018-05-31T17:06:59.161Z,24.60
2018-05-31T17:09:26.234Z,24.30
2018-05-31T17:11:53.241Z,24.00
2018-05-31T17:14:19.551Z,23.90
2018-05-31T17:16:45.839Z,23.80
2018-05-31T17:19:12.169Z,23.70
2018-05-31T17:21:39.185Z,23.30
2018-05-31T17:24:05.493Z,23.30
2018-05-31T17:26:31.769Z,23.20
2018-05-31T17:28:58.088Z,23.20
2018-05-31T17:31:24.365Z,23.00
2018-05-31T17:33:50.641Z,22.90
2018-05-31T17:36:16.905Z,22.60
2018-05-31T17:38:43.941Z,22.00
2018-05-31T17:41:11.966Z,21.80
2018-05-31T17:43:38.265Z,21.80
2018-05-31T17:46:04.544Z,21.50
2018-05-31T17:48:30.862Z,21.10
2018-05-31T17:50:57.153Z,20.30
2018-05-31T17:53:23.448Z,19.80
2018-05-31T17:55:49.721Z,19.50
2018-05-31T17:58:16.038Z,19.30
2018-05-31T18:00:42.341Z,19.30
2018-05-31T18:03:08.629Z,19.30
2018-05-31T18:05:34.914Z,19.40
2018-05-31T18:08:02.989Z,19.60
2018-05-31T18:10:30.014Z,19.70
2018-05-31T18:12:57.073Z,19.70
2018-05-31T18:15:24.109Z,19.50
2018-05-31T18:17:50.413Z,19.40
2018-05-31T18:20:16.685Z,19.00
2018-05-31T18:22:43.880Z,18.40
2018-05-31T18:25:10.153Z,18.40
2018-05-31T18:27:36.452Z,18.30
2018-05-31T18:30:02.757Z,18.20
2018-05-31T18:32:29.090Z,18.10
2018-05-31T18:34:55.366Z,18.00
2018-05-31T18:37:21.668Z,17.90
2018-05-31T18:39:48.000Z,17.90
2018-05-31T18:42:14.302Z,18.00
2018-05-31T18:44:40.572Z,18.20
2018-05-31T18:47:07.604Z,18.40
2018-05-31T18:49:33.865Z,18.40
2018-05-31T18:52:00.157Z,18.50
2018-05-31T18:54:26.434Z,18.50
2018-05-31T18:56:52.744Z,18.30
2018-05-31T18:59:19.026Z,18.20
2018-05-31T19:01:45.325Z,18.10
2018-05-31T19:04:11.599Z,18.00
2018-05-31T19:06:37.873Z,17.80
2018-05-31T19:09:04.233Z,17.80
2018-05-31T19:11:31.249Z,17.70
2018-05-31T19:13:57.580Z,17.70
2018-05-31T19:16:23.905Z,17.80
2018-05-31T19:18:56.317Z,17.80
2018-05-31T19:21:23.341Z,17.70
2018-05-31T19:23:49.670Z,17.60
2018-05-31T19:26:15.950Z,17.70
2018-05-31T19:28:42.253Z,17.80
2018-05-31T19:31:11.117Z,17.90
2018-05-31T19:33:37.429Z,17.90
2018-05-31T19:36:09.917Z,17.90
2018-05-31T19:38:36.229Z,17.80
2018-05-31T19:41:02.540Z,17.70
2018-05-31T19:43:35.014Z,17.70
2018-05-31T19:46:01.299Z,17.70
2018-05-31T19:48:28.343Z,17.90
2018-05-31T19:50:55.384Z,18.00
2018-05-31T19:53:27.757Z,18.00
2018-05-31T19:55:54.033Z,18.10
2018-05-31T19:58:26.436Z,18.10
2018-05-31T20:00:58.793Z,18.20
2018-05-31T20:03:30.117Z,18.20
2018-05-31T20:05:56.405Z,18.20
2018-05-31T20:08:23.717Z,18.10
2018-05-31T20:10:50.002Z,18.10
2018-05-31T20:13:16.292Z,18.20
2018-05-31T20:15:42.556Z,18.40
2018-05-31T20:18:08.855Z,18.50
2018-05-31T20:20:35.167Z,18.60
2018-05-31T20:23:01.467Z,18.70
2018-05-31T20:25:28.506Z,18.80
2018-05-31T20:27:55.558Z,18.70
2018-05-31T20:30:22.577Z,18.60
2018-05-31T20:32:48.881Z,18.60
2018-05-31T20:35:15.168Z,18.60
2018-05-31T20:37:42.210Z,18.30
2018-05-31T20:40:09.236Z,18.20
2018-05-31T20:42:36.546Z,18.20
2018-05-31T20:45:02.860Z,18.30
2018-05-31T20:47:29.158Z,18.40
2018-05-31T20:49:55.424Z,18.30
2018-05-31T20:52:21.724Z,18.30
2018-05-31T20:54:48.029Z,18.30
2018-05-31T20:57:14.322Z,18.40
2018-05-31T20:59:40.605Z,18.20
2018-05-31T21:02:06.917Z,18.00
2018-05-31T21:04:33.205Z,18.10
2018-05-31T21:06:59.516Z,18.00
2018-05-31T21:09:26.546Z,17.90
2018-05-31T21:11:52.841Z,17.90
2018-05-31T21:14:19.144Z,18.00
2018-05-31T21:16:45.449Z,18.10
2018-05-31T21:19:12.457Z,17.80
2018-05-31T21:21:38.753Z,17.80
2018-05-31T21:24:05.024Z,17.90
2018-05-31T21:26:31.321Z,17.80
2018-05-31T21:28:57.597Z,17.70
2018-05-31T21:31:23.889Z,17.50
2018-05-31T21:33:50.170Z,17.70
2018-05-31T21:36:16.512Z,17.60
2018-05-31T21:38:43.805Z,17.50
2018-05-31T21:41:10.143Z,17.50
2018-05-31T21:43:36.405Z,17.30
2018-05-31T21:46:02.712Z,17.20
2018-05-31T21:48:28.989Z,17.30
2018-05-31T21:50:56.035Z,17.20
2018-05-31T21:53:23.056Z,17.10
2018-05-31T21:55:49.361Z,17.10
2018-05-31T21:58:15.660Z,17.20
2018-05-31T22:00:48.172Z,17.10
2018-05-31T22:03:14.454Z,16.90
2018-05-31T22:05:41.781Z,16.90
2018-05-31T22:08:08.825Z,17.10
2018-05-31T22:10:35.128Z,17.10
2018-05-31T22:13:01.417Z,17.30
2018-05-31T22:15:27.720Z,17.30
2018-05-31T22:17:54.004Z,17.40
2018-05-31T22:20:20.312Z,17.40
2018-05-31T22:22:46.590Z,17.50
2018-05-31T22:25:12.894Z,17.50
2018-05-31T22:27:39.198Z,17.60
2018-05-31T22:30:07.281Z,17.80
2018-05-31T22:32:33.589Z,17.80
2018-05-31T22:35:00.636Z,17.70
2018-05-31T22:37:27.641Z,17.80
2018-05-31T22:39:53.933Z,17.80
2018-05-31T22:42:20.200Z,17.80
2018-05-31T22:44:46.496Z,17.80
2018-05-31T22:47:12.791Z,17.70
2018-05-31T22:49:39.098Z,17.80
2018-05-31T22:52:05.404Z,17.80
2018-05-31T22:54:31.716Z,17.80
2018-05-31T22:56:57.997Z,17.50
2018-05-31T22:59:24.324Z,17.40
2018-05-31T23:01:50.629Z,17.30
2018-05-31T23:04:16.941Z,17.50
2018-05-31T23:06:43.217Z,17.60
2018-05-31T23:09:10.520Z,17.60
2018-05-31T23:11:36.825Z,17.70
2018-05-31T23:14:03.865Z,17.60
2018-05-31T23:16:30.934Z,17.50
2018-05-31T23:18:57.225Z,17.60
2018-05-31T23:21:23.501Z,17.40
2018-05-31T23:23:49.796Z,17.60
2018-05-31T23:26:16.074Z,17.70
2018-05-31T23:28:42.378Z,17.70
2018-05-31T23:31:08.652Z,17.60
2018-05-31T23:33:34.936Z,17.50
2018-05-31T23:36:01.953Z,17.30
2018-05-31T23:38:28.252Z,17.30
2018-05-31T23:40:54.537Z,17.30
2018-05-31T23:43:21.600Z,17.10
2018-05-31T23:45:47.868Z,17.10
2018-05-31T23:48:14.175Z,17.20
2018-05-31T23:50:40.453Z,17.30
2018-05-31T23:53:07.501Z,17.30
2018-05-31T23:55:33.792Z,17.20
2018-05-31T23:58:00.105Z,17.40
